アディスアベバ の空港の天気 - METARとTAF

ボレ国際空港(アディスアベバ) ( HAAB / ADD ) - エチオピア アディスアベバ
飛行場実況気象(Metar)
観測時間12/10 07:00 EAT (12/10 04:00 UTC)
風向・風速西北西 1m/s
視程10km以上
天気現象
少しの雲 雲底高度 760m
気温14℃
湿度77%
気圧1029hPa
METARHAAB 100400Z 30002KT 9999 FEW025 14/10 Q1029
過去の天気等 Google飛行場航空写真 Wunderground天気予報

過去48時間のMETAR

飛行場予報(TAF)
発表時間: 12/10 00:30 EAT (12/09 21:30 UTC)
予報対象時間: 10日3時 EAT ~ 11日9時 EAT
風向・風速北北西 4m/s
視程10km以上
全天の4割程度の雲 雲底高度 1220m
全天の4割程度の雲 雲底高度 2440m
TAF HAAB 092130Z 1000/1106 34008KT 9999 SCT040 SCT080 BECMG1005/1010 34008KT 9000 -HZ BKN030 SCT080